createdAt,value
2022-08-17T00:04:23.722Z,4.22
2022-08-17T00:09:28.740Z,4.32
2022-08-17T00:14:34.274Z,3.78
2022-08-17T00:19:38.331Z,4.13
2022-08-17T00:24:42.404Z,4.30
2022-08-17T00:29:48.337Z,3.95
2022-08-17T00:34:52.392Z,3.80
2022-08-17T00:39:56.532Z,3.83
2022-08-17T00:45:02.355Z,4.32
2022-08-17T00:50:08.254Z,3.85
2022-08-17T00:55:13.360Z,4.75
2022-08-17T01:00:26.643Z,4.47
2022-08-17T01:05:34.280Z,3.85
2022-08-17T01:10:58.921Z,3.95
2022-08-17T01:16:13.034Z,4.72
2022-08-17T01:21:25.770Z,4.78
2022-08-17T01:26:34.387Z,5.00
2022-08-17T01:31:41.940Z,4.38
2022-08-17T01:36:48.923Z,3.75
2022-08-17T01:41:59.806Z,3.85
2022-08-17T01:47:04.182Z,4.20
2022-08-17T01:52:11.089Z,4.88
2022-08-17T01:57:17.261Z,4.38
2022-08-17T02:02:30.435Z,4.43
2022-08-17T02:07:48.004Z,4.00
2022-08-17T02:13:02.486Z,4.53
2022-08-17T02:18:07.581Z,4.10
2022-08-17T02:23:12.667Z,4.18
2022-08-17T02:28:20.763Z,4.70
2022-08-17T02:33:24.929Z,4.43
2022-08-17T02:38:47.802Z,4.28
2022-08-17T02:43:53.277Z,4.63
2022-08-17T02:48:57.810Z,4.35
2022-08-17T02:54:39.383Z,4.05
2022-08-17T02:59:27.645Z,4.13
2022-08-17T03:04:31.795Z,4.78
2022-08-17T03:09:39.437Z,4.30
2022-08-17T03:14:45.516Z,5.05
2022-08-17T03:19:49.646Z,3.88
2022-08-17T03:24:53.768Z,4.28
2022-08-17T03:29:59.545Z,4.28
2022-08-17T03:35:03.576Z,4.60
2022-08-17T03:40:09.446Z,4.70
2022-08-17T03:45:41.489Z,4.55
2022-08-17T03:51:03.643Z,5.03
2022-08-17T03:56:25.697Z,4.60
2022-08-17T04:01:31.224Z,5.07
2022-08-17T04:06:35.504Z,8.85
2022-08-17T04:11:40.487Z,7.95
2022-08-17T04:16:46.067Z,5.40
2022-08-17T04:21:50.254Z,6.63
2022-08-17T04:26:54.819Z,6.53
2022-08-17T04:32:00.407Z,5.25
2022-08-17T04:37:04.541Z,4.88
2022-08-17T04:42:17.384Z,5.28
2022-08-17T04:47:24.682Z,4.50
2022-08-17T04:52:32.306Z,4.80
2022-08-17T04:57:48.538Z,4.78
2022-08-17T05:02:56.082Z,5.10
2022-08-17T05:08:02.765Z,5.28
2022-08-17T05:13:09.157Z,6.85
2022-08-17T05:18:15.554Z,5.97
2022-08-17T05:23:21.199Z,6.38
2022-08-17T05:28:27.955Z,6.10
2022-08-17T05:33:41.509Z,6.10
2022-08-17T05:38:48.340Z,5.38
2022-08-17T05:43:56.206Z,6.28
2022-08-17T05:49:05.697Z,5.50
2022-08-17T05:54:35.644Z,4.97
2022-08-17T05:59:50.271Z,5.28
2022-08-17T06:05:09.202Z,5.40
2022-08-17T06:10:19.436Z,4.90
2022-08-17T06:15:32.445Z,6.10
2022-08-17T06:20:46.860Z,5.05
2022-08-17T06:25:57.371Z,4.65
2022-08-17T06:31:10.103Z,4.63
2022-08-17T06:36:29.460Z,4.40
2022-08-17T06:41:44.108Z,4.07
2022-08-17T06:46:53.226Z,4.40
2022-08-17T06:52:08.947Z,4.43
2022-08-17T06:57:18.475Z,4.18
2022-08-17T07:02:52.884Z,4.50
2022-08-17T07:08:04.266Z,4.40
2022-08-17T07:13:30.870Z,3.95
2022-08-17T07:18:35.132Z,4.43
2022-08-17T07:23:53.309Z,4.10
2022-08-17T07:28:57.730Z,4.13
2022-08-17T07:34:08.181Z,3.83
2022-08-17T07:39:13.931Z,3.95
2022-08-17T07:44:18.052Z,3.95
2022-08-17T07:49:36.363Z,4.22
2022-08-17T08:00:27.975Z,3.75
2022-08-17T08:05:51.093Z,3.50
2022-08-17T08:11:03.865Z,3.50
2022-08-17T08:16:22.759Z,2.92
2022-08-17T08:21:37.808Z,3.25
2022-08-17T08:26:51.478Z,3.28
2022-08-17T08:32:16.823Z,3.22
2022-08-17T08:37:34.732Z,2.85
2022-08-17T08:42:49.744Z,3.30
2022-08-17T08:48:22.789Z,2.97
2022-08-17T08:53:43.680Z,2.92
2022-08-17T08:58:56.299Z,3.50
2022-08-17T09:04:24.590Z,3.00
2022-08-17T09:09:40.194Z,2.72
2022-08-17T09:14:54.108Z,2.58
2022-08-17T09:20:05.098Z,2.45
2022-08-17T09:25:11.998Z,2.28
2022-08-17T09:30:19.498Z,2.33
2022-08-17T09:35:36.609Z,2.15
2022-08-17T09:40:49.936Z,2.72
2022-08-17T09:46:00.274Z,2.33
2022-08-17T09:51:09.746Z,2.45
2022-08-17T09:56:33.334Z,2.72
2022-08-17T10:01:45.029Z,2.10
2022-08-17T10:06:59.517Z,2.60
2022-08-17T10:12:21.597Z,2.30
2022-08-17T10:17:44.296Z,2.45
2022-08-17T10:23:08.960Z,2.63
2022-08-17T10:28:20.031Z,2.75
2022-08-17T10:33:34.091Z,2.30
2022-08-17T10:38:46.170Z,2.45
2022-08-17T10:44:37.077Z,2.33
2022-08-17T10:49:34.549Z,2.47
2022-08-17T10:54:50.246Z,2.13
2022-08-17T10:59:56.805Z,2.78
2022-08-17T11:05:30.197Z,2.42
2022-08-17T11:10:52.225Z,2.70
2022-08-17T11:16:10.753Z,2.20
2022-08-17T11:21:47.690Z,1.90
2022-08-17T11:27:12.472Z,2.40
2022-08-17T11:32:34.525Z,2.22
2022-08-17T11:37:52.633Z,2.13
2022-08-17T11:43:17.473Z,2.63
2022-08-17T11:48:47.303Z,3.00
2022-08-17T11:54:32.335Z,2.45
2022-08-17T11:59:59.997Z,2.47
2022-08-17T12:05:27.312Z,1.88
2022-08-17T12:10:35.601Z,2.43
2022-08-17T12:15:49.394Z,2.35
2022-08-17T12:21:15.569Z,2.08
2022-08-17T12:26:30.720Z,2.30
2022-08-17T12:31:37.937Z,2.40
2022-08-17T12:36:42.201Z,2.13
2022-08-17T12:41:50.339Z,2.85
2022-08-17T12:47:00.442Z,2.45
2022-08-17T12:52:09.787Z,1.98
2022-08-17T12:57:20.120Z,2.70
2022-08-17T13:02:39.371Z,2.08
2022-08-17T13:07:43.873Z,2.03
2022-08-17T13:12:51.007Z,2.65
2022-08-17T13:18:00.989Z,2.70
2022-08-17T13:23:11.978Z,3.35
2022-08-17T13:28:30.723Z,3.70
2022-08-17T13:33:44.878Z,4.00
2022-08-17T13:38:51.157Z,2.63
2022-08-17T13:43:56.616Z,3.40
2022-08-17T13:49:04.122Z,2.88
2022-08-17T13:54:23.061Z,3.78
2022-08-17T13:59:53.727Z,3.03
2022-08-17T14:04:58.689Z,3.13
2022-08-17T14:10:06.660Z,2.90
2022-08-17T14:20:20.520Z,2.67
2022-08-17T14:25:27.509Z,2.50
2022-08-17T14:30:34.453Z,2.37
2022-08-17T14:35:38.554Z,2.70
2022-08-17T14:40:44.313Z,2.08
2022-08-17T14:45:50.178Z,2.40
2022-08-17T14:50:54.598Z,2.47
2022-08-17T14:55:58.843Z,2.40
2022-08-17T15:01:07.693Z,2.42
2022-08-17T15:06:16.473Z,2.38
2022-08-17T15:11:20.722Z,2.45
2022-08-17T15:16:27.057Z,2.42
2022-08-17T15:21:31.418Z,2.80
2022-08-17T15:26:36.892Z,2.13
2022-08-17T15:31:42.546Z,2.30
2022-08-17T15:36:49.199Z,2.35
2022-08-17T15:41:58.472Z,2.10
2022-08-17T15:47:04.514Z,2.22
2022-08-17T15:52:17.147Z,2.67
2022-08-17T15:57:21.843Z,2.47
2022-08-17T16:03:45.301Z,2.63
2022-08-17T16:07:57.104Z,2.53
2022-08-17T16:13:01.533Z,2.00
2022-08-17T16:18:07.032Z,2.58
2022-08-17T16:23:13.576Z,2.53
2022-08-17T16:28:19.511Z,2.20
2022-08-17T16:33:25.197Z,2.70
2022-08-17T16:38:29.172Z,2.42
2022-08-17T16:43:34.322Z,3.42
2022-08-17T16:48:39.795Z,3.22
2022-08-17T16:53:44.389Z,3.65
2022-08-17T16:58:52.506Z,3.58
2022-08-17T17:04:05.480Z,3.75
2022-08-17T17:09:13.691Z,3.58
2022-08-17T17:19:35.866Z,4.95
2022-08-17T17:24:50.047Z,8.50
2022-08-17T17:30:03.391Z,3.90
2022-08-17T17:35:16.474Z,3.20
2022-08-17T17:40:25.448Z,2.80
2022-08-17T17:45:37.793Z,2.53
2022-08-17T17:50:50.256Z,3.15
2022-08-17T17:56:06.826Z,2.67
2022-08-17T18:01:39.297Z,3.70
2022-08-17T18:06:55.836Z,3.60
2022-08-17T18:12:22.755Z,2.63
2022-08-17T18:17:29.733Z,3.40
2022-08-17T18:22:35.425Z,2.88
2022-08-17T18:27:50.634Z,4.07
2022-08-17T18:32:54.987Z,3.95
2022-08-17T18:38:21.086Z,4.00
2022-08-17T18:43:28.997Z,3.22
2022-08-17T18:48:59.111Z,3.53
2022-08-17T18:54:13.788Z,3.08
2022-08-17T18:59:37.035Z,3.65
2022-08-17T19:04:43.497Z,3.95
2022-08-17T19:09:52.146Z,3.45
2022-08-17T19:20:09.829Z,3.38
2022-08-17T19:25:24.256Z,3.20
2022-08-17T19:30:31.362Z,3.55
2022-08-17T19:35:43.589Z,3.58
2022-08-17T19:41:02.250Z,4.07
2022-08-17T19:46:16.367Z,2.97
2022-08-17T19:51:32.421Z,3.08
2022-08-17T19:56:51.318Z,3.17
2022-08-17T20:02:03.020Z,3.20
2022-08-17T20:07:16.829Z,3.13
2022-08-17T20:12:26.978Z,3.88
2022-08-17T20:17:33.121Z,4.55
2022-08-17T20:22:49.643Z,3.75
2022-08-17T20:28:05.695Z,3.75
2022-08-17T20:33:26.077Z,3.35
2022-08-17T20:38:42.371Z,3.67
2022-08-17T20:43:52.407Z,3.83
2022-08-17T20:48:59.384Z,4.13
2022-08-17T20:54:29.509Z,3.78
2022-08-17T21:00:16.561Z,3.60
2022-08-17T21:05:37.751Z,3.58
2022-08-17T21:10:45.645Z,4.25
2022-08-17T21:15:58.964Z,3.80
2022-08-17T21:21:17.765Z,4.40
2022-08-17T21:26:31.611Z,4.25
2022-08-17T21:31:39.586Z,4.28
2022-08-17T21:36:46.111Z,4.25
2022-08-17T21:41:53.192Z,4.45
2022-08-17T21:47:14.457Z,4.25
2022-08-17T21:52:23.220Z,4.25
2022-08-17T21:57:29.262Z,3.78
2022-08-17T22:02:35.602Z,3.85
2022-08-17T22:07:43.905Z,4.30
2022-08-17T22:13:03.788Z,4.40
2022-08-17T22:18:19.936Z,4.38
2022-08-17T22:23:48.284Z,4.28
2022-08-17T22:28:56.583Z,3.60
2022-08-17T22:34:13.858Z,4.55
2022-08-17T22:40:00.248Z,4.95
2022-08-17T22:45:04.410Z,5.05
2022-08-17T22:50:25.353Z,4.93
2022-08-17T22:55:50.237Z,5.72
2022-08-17T23:00:55.592Z,6.07
2022-08-17T23:06:08.156Z,5.88
2022-08-17T23:11:15.130Z,5.57
2022-08-17T23:16:20.463Z,5.00
2022-08-17T23:21:29.557Z,5.88
2022-08-17T23:36:52.382Z,6.57
2022-08-17T23:41:59.851Z,6.60
2022-08-17T23:47:04.929Z,6.53
2022-08-17T23:52:12.576Z,5.22
2022-08-17T23:57:33.432Z,5.72
